Terminal Aerodrome Forecast
Issued by NWS

Home | Current Version | Previous Version | Graphics & Text | Print | Product List | Glossary On
Versions: 1 2 3 4 5 6 7 8 9 10 11 12 13
159
FTUS43 KICT 192320
TAFHUT
TAF
KHUT 192320Z 2000/2024 19008KT P6SM BKN250
     FM201700 20015G24KT P6SM SKC=

USA.gov is the U.S. government's official web portal to all federal, state and local government web resources and services.